Burdett, New York
Current Conditions -  °F | °C
As of 7:53 PM on Wednesday 17 Dec 2014 (Local Time) from KELM Reporting Station
Overcast Overcast  
Wind Chill: 25°   Ceiling: 2900
Heat Index: 36°   Visibility: 10mi
Dew Point: 26°   Wind: 20mph
Humidity: 67%   Direction: 270°W
Pressure: 29.93"   Gusts: 26mph
Location:  42.42°N, 76.85°W
Report Text: KELM 180053Z AUTO 27017G23KT 10SM BKN029 OVC035 02/M03 A2993 RMK AO2 SLP142 T00221033
Loading
Personal Weather Stations






























Interactive Weather Map New forecast layout! Learn more

10-Day Weather Forecast

Advertisements
Track Severe Weather on mobile